Holly Ann — WDE9094 — position and weather

sailwx.info

Track history (hours):
 
Tides and Currents Weather Stations Pressure Air Temp Water Temp Dewpoint Dewpoint Depression Visibility Wind Speed Wind Dir Waves Ship Positions

Holly Ann

Owner: Manke Tug and Barge Co., Inc., Shelton, WA. More information available from US FCC via Universal Licensing System and Coast Guard Vessel Documentation Center.

Last reported at 2015-Mar-27 04:10 UTC. Time now 2015-Mar-31 20:45 UTC.
Position N 47°10' W 122°55'.

; draft 4.5 m.

Type: Towing. MMSI: 367413350.

Date/timePositionNaut miles runAvg speedWind from/ knotsBaromVisibWave heightAir tempDewpointWater temp
2015-Mar-27 04:10N 47°10' W 122°55'4 4.3
2015-Mar-27 03:19N 47°11' W 122°49'10 5.5
2015-Mar-27 01:33N 47°13' W 122°36'8 8.0
2015-Mar-27 00:34N 47°21' W 122°33'6 7.5
2015-Mar-26 23:44N 47°27' W 122°32'1 8.6
2015-Mar-26 23:34N 47°29' W 122°31'1 8.3
2015-Mar-26 23:29N 47°29' W 122°31'7 7.9
2015-Mar-26 22:34N 47°35' W 122°25'1 8.2
2015-Mar-26 22:29N 47°36' W 122°24'3 2.8
2015-Mar-26 21:33N 47°34' W 122°21'0 0.0
2015-Mar-26 21:29N 47°34' W 122°21'0 0.0
2015-Mar-26 20:33N 47°34' W 122°21'0 0.0
2015-Mar-26 20:29N 47°34' W 122°21'0 0.0
2015-Mar-26 19:33N 47°34' W 122°21'0 0.0
2015-Mar-26 18:32N 47°34' W 122°21'0 0.0
2015-Mar-26 17:33N 47°34' W 122°21'0 0.0
2015-Mar-26 16:34N 47°34' W 122°21'0 0.0
2015-Mar-26 15:46N 47°34' W 122°21'0 0.0
2015-Mar-26 15:34N 47°34' W 122°21'0 0.0
2015-Mar-26 15:31N 47°34' W 122°21'0 0.0
2015-Mar-26 14:34N 47°34' W 122°21'0 0.0
2015-Mar-26 14:31N 47°34' W 122°21'0 0.0
2015-Mar-26 13:34N 47°34' W 122°21'0 0.0
2015-Mar-26 13:31N 47°34' W 122°21'0 0.1
2015-Mar-26 12:34N 47°34' W 122°21'0 0.5
2015-Mar-26 12:31N 47°34' W 122°21'4 3.8
2015-Mar-26 11:34N 47°34' W 122°26'0 6.5
2015-Mar-26 11:30N 47°34' W 122°27'8 8.2
2015-Mar-26 10:34N 47°27' W 122°31'1 8.0
2015-Mar-26 10:26N 47°26' W 122°31'7 8.4
2015-Mar-26 09:34N 47°19' W 122°33'8 8.1
2015-Mar-26 08:33N 47°12' W 122°39'7 6.9
2015-Mar-26 07:33N 47°11' W 122°49'11 0.4
2015-Mar-25 05:33N 47°13' W 123°05'6 6.0
2015-Mar-25 04:31N 47°12' W 122°56'5 4.7
2015-Mar-25 03:25N 47°11' W 122°48'6 7.1
2015-Mar-25 02:33N 47°07' W 122°41'7 7.1
2015-Mar-25 01:33N 47°13' W 122°35'9 9.3
2015-Mar-25 00:34N 47°22' W 122°32'2 6.8
2015-Mar-25 00:19N 47°24' W 122°32'5 7.0
2015-Mar-24 23:33N 47°29' W 122°30'0 5.9
2015-Mar-24 23:30N 47°30' W 122°30'7 7.3
2015-Mar-24 22:33N 47°35' W 122°25'0 7.4
2015-Mar-24 22:30N 47°36' W 122°24'3 3.6
2015-Mar-24 21:34N 47°33' W 122°21'0 0.0
2015-Mar-24 21:30N 47°33' W 122°21'0 0.0
2015-Mar-24 20:33N 47°33' W 122°21'0 0.0
2015-Mar-24 20:30N 47°33' W 122°21'0 0.0
2015-Mar-24 19:29N 47°33' W 122°21'0 0.0
2015-Mar-24 19:29N 47°33' W 122°21'0 0.0
2015-Mar-24 18:33N 47°33' W 122°21'0 0.0
2015-Mar-24 18:29N 47°33' W 122°21'0 0.0
2015-Mar-24 17:33N 47°33' W 122°21'0 0.0
2015-Mar-24 17:29N 47°33' W 122°21'0 0.0
2015-Mar-24 16:31N 47°33' W 122°21'0 0.0
2015-Mar-24 16:29N 47°33' W 122°21'0 0.0
2015-Mar-24 15:33N 47°33' W 122°21'0 0.0
2015-Mar-24 15:29N 47°33' W 122°21'0 0.0
2015-Mar-24 14:34N 47°33' W 122°21'0 0.0
2015-Mar-24 14:29N 47°33' W 122°21'0 0.0
2015-Mar-24 13:33N 47°33' W 122°21'0 0.0
2015-Mar-24 13:29N 47°33' W 122°21'0 0.0
2015-Mar-24 12:33N 47°33' W 122°21'0 0.0
2015-Mar-24 12:29N 47°33' W 122°21'0 0.0
2015-Mar-24 11:33N 47°33' W 122°21'0 0.0
2015-Mar-24 11:29N 47°33' W 122°21'1 1.4
2015-Mar-24 10:33N 47°34' W 122°21'0 3.3
2015-Mar-24 10:29N 47°35' W 122°22'4 4.8
2015-Mar-24 09:33N 47°33' W 122°27'2 8.2
2015-Mar-24 09:17N 47°31' W 122°29'6 8.3
2015-Mar-24 08:33N 47°25' W 122°32'9 8.9
2015-Mar-24 07:33N 47°16' W 122°33'8 7.7
2015-Mar-24 06:31N 47°11' W 122°43'7 6.8
2015-Mar-24 05:30N 47°10' W 122°53'  
2015-Mar-21 13:23N 47°12' W 122°56'2 1.5
2015-Mar-21 12:16N 47°11' W 122°54'0 0.0
2015-Mar-21 11:33N 47°11' W 122°54'0 0.0
2015-Mar-21 10:27N 47°11' W 122°54'0 0.0
2015-Mar-21 09:27N 47°11' W 122°54'0 0.0
2015-Mar-21 08:21N 47°11' W 122°54'3 3.3
2015-Mar-21 07:32N 47°11' W 122°50'7 7.0
2015-Mar-21 06:32N 47°11' W 122°39'7 7.0
2015-Mar-21 05:33N 47°17' W 122°33'7 6.8
2015-Mar-21 04:33N 47°24' W 122°32'4 7.2
2015-Mar-21 04:02N 47°27' W 122°31'4 7.5
2015-Mar-21 03:33N 47°31' W 122°29'0 6.6
2015-Mar-21 03:32N 47°31' W 122°29'8 7.8
2015-Mar-21 02:33N 47°38' W 122°28'0 7.7
2015-Mar-21 02:32N 47°39' W 122°28'8 7.9
2015-Mar-21 01:33N 47°46' W 122°27'0 6.8
2015-Mar-21 01:31N 47°46' W 122°26'8 8.4
2015-Mar-21 00:33N 47°53' W 122°21'8 7.8
2015-Mar-20 23:32N 47°60' W 122°14'2 1.8
2015-Mar-20 22:22N 48°01' W 122°11'0 0.0
2015-Mar-20 21:20N 48°01' W 122°11'0 0.0
2015-Mar-20 20:33N 48°01' W 122°11'0 0.0
2015-Mar-20 19:33N 48°01' W 122°11'0 0.0
2015-Mar-20 18:33N 48°01' W 122°11'0 0.0
2015-Mar-20 17:33N 48°01' W 122°11'0 0.0
2015-Mar-20 16:32N 48°01' W 122°11'0 0.0
2015-Mar-20 15:33N 48°01' W 122°11'0 0.0
2015-Mar-20 14:09N 48°01' W 122°11'0 0.0
2015-Mar-20 13:33N 48°01' W 122°11'0 0.0
2015-Mar-20 12:33N 48°01' W 122°11'3 3.5
2015-Mar-20 11:33N 47°59' W 122°15'3 3.4
2015-Mar-20 10:33N 47°59' W 122°20'4 4.1
2015-Mar-20 09:33N 47°55' W 122°21'2 4.3
2015-Mar-20 09:08N 47°53' W 122°21'2 3.7
2015-Mar-20 08:33N 47°51' W 122°23'2 4.1
2015-Mar-20 08:03N 47°50' W 122°24'3 5.5
2015-Mar-20 07:33N 47°47' W 122°25'1 6.9
2015-Mar-20 07:23N 47°46' W 122°25'6 6.8
2015-Mar-20 06:33N 47°40' W 122°27'0 6.1
2015-Mar-20 06:33N 47°40' W 122°27'2 7.4
2015-Mar-20 06:13N 47°38' W 122°27'5 7.1
2015-Mar-20 05:33N 47°33' W 122°28'8 8.4
2015-Mar-20 04:33N 47°25' W 122°32'10 9.9
2015-Mar-20 03:33N 47°15' W 122°34'16 6.8
2015-Mar-20 01:13N 47°11' W 122°56'  
Track history (hours):
 
Tides and Currents Weather Stations Pressure Air Temp Water Temp Dewpoint Dewpoint Depression Visibility Wind Speed Wind Dir Waves Ship Positions

Holly Ann

Owner: Manke Tug and Barge Co., Inc., Shelton, WA. More information available from US FCC via Universal Licensing System and Coast Guard Vessel Documentation Center.

Last reported at 2015-Mar-27 04:10 UTC. Time now 2015-Mar-31 20:45 UTC.
Position N 47°10' W 122°55'.

; draft 4.5 m.

Type: Towing. MMSI: 367413350.

Date/timePositionNaut miles runAvg speedWind from/ knotsBaromVisibWave heightAir tempDewpointWater temp
2015-Mar-27 04:10N 47°10' W 122°55'4 4.3
2015-Mar-27 03:19N 47°11' W 122°49'10 5.5
2015-Mar-27 01:33N 47°13' W 122°36'8 8.0
2015-Mar-27 00:34N 47°21' W 122°33'6 7.5
2015-Mar-26 23:44N 47°27' W 122°32'1 8.6
2015-Mar-26 23:34N 47°29' W 122°31'1 8.3
2015-Mar-26 23:29N 47°29' W 122°31'7 7.9
2015-Mar-26 22:34N 47°35' W 122°25'1 8.2
2015-Mar-26 22:29N 47°36' W 122°24'3 2.8
2015-Mar-26 21:33N 47°34' W 122°21'0 0.0
2015-Mar-26 21:29N 47°34' W 122°21'0 0.0
2015-Mar-26 20:33N 47°34' W 122°21'0 0.0
2015-Mar-26 20:29N 47°34' W 122°21'0 0.0
2015-Mar-26 19:33N 47°34' W 122°21'0 0.0
2015-Mar-26 18:32N 47°34' W 122°21'0 0.0
2015-Mar-26 17:33N 47°34' W 122°21'0 0.0
2015-Mar-26 16:34N 47°34' W 122°21'0 0.0
2015-Mar-26 15:46N 47°34' W 122°21'0 0.0
2015-Mar-26 15:34N 47°34' W 122°21'0 0.0
2015-Mar-26 15:31N 47°34' W 122°21'0 0.0
2015-Mar-26 14:34N 47°34' W 122°21'0 0.0
2015-Mar-26 14:31N 47°34' W 122°21'0 0.0
2015-Mar-26 13:34N 47°34' W 122°21'0 0.0
2015-Mar-26 13:31N 47°34' W 122°21'0 0.1
2015-Mar-26 12:34N 47°34' W 122°21'0 0.5
2015-Mar-26 12:31N 47°34' W 122°21'4 3.8
2015-Mar-26 11:34N 47°34' W 122°26'0 6.5
2015-Mar-26 11:30N 47°34' W 122°27'8 8.2
2015-Mar-26 10:34N 47°27' W 122°31'1 8.0
2015-Mar-26 10:26N 47°26' W 122°31'7 8.4
2015-Mar-26 09:34N 47°19' W 122°33'8 8.1
2015-Mar-26 08:33N 47°12' W 122°39'7 6.9
2015-Mar-26 07:33N 47°11' W 122°49'11 0.4
2015-Mar-25 05:33N 47°13' W 123°05'6 6.0
2015-Mar-25 04:31N 47°12' W 122°56'5 4.7
2015-Mar-25 03:25N 47°11' W 122°48'6 7.1
2015-Mar-25 02:33N 47°07' W 122°41'7 7.1
2015-Mar-25 01:33N 47°13' W 122°35'9 9.3
2015-Mar-25 00:34N 47°22' W 122°32'2 6.8
2015-Mar-25 00:19N 47°24' W 122°32'5 7.0
2015-Mar-24 23:33N 47°29' W 122°30'0 5.9
2015-Mar-24 23:30N 47°30' W 122°30'7 7.3
2015-Mar-24 22:33N 47°35' W 122°25'0 7.4
2015-Mar-24 22:30N 47°36' W 122°24'3 3.6
2015-Mar-24 21:34N 47°33' W 122°21'0 0.0
2015-Mar-24 21:30N 47°33' W 122°21'0 0.0
2015-Mar-24 20:33N 47°33' W 122°21'0 0.0
2015-Mar-24 20:30N 47°33' W 122°21'0 0.0
2015-Mar-24 19:29N 47°33' W 122°21'0 0.0
2015-Mar-24 19:29N 47°33' W 122°21'0 0.0
2015-Mar-24 18:33N 47°33' W 122°21'0 0.0
2015-Mar-24 18:29N 47°33' W 122°21'0 0.0
2015-Mar-24 17:33N 47°33' W 122°21'0 0.0
2015-Mar-24 17:29N 47°33' W 122°21'0 0.0
2015-Mar-24 16:31N 47°33' W 122°21'0 0.0
2015-Mar-24 16:29N 47°33' W 122°21'0 0.0
2015-Mar-24 15:33N 47°33' W 122°21'0 0.0
2015-Mar-24 15:29N 47°33' W 122°21'0 0.0
2015-Mar-24 14:34N 47°33' W 122°21'0 0.0
2015-Mar-24 14:29N 47°33' W 122°21'0 0.0
2015-Mar-24 13:33N 47°33' W 122°21'0 0.0
2015-Mar-24 13:29N 47°33' W 122°21'0 0.0
2015-Mar-24 12:33N 47°33' W 122°21'0 0.0
2015-Mar-24 12:29N 47°33' W 122°21'0 0.0
2015-Mar-24 11:33N 47°33' W 122°21'0 0.0
2015-Mar-24 11:29N 47°33' W 122°21'1 1.4
2015-Mar-24 10:33N 47°34' W 122°21'0 3.3
2015-Mar-24 10:29N 47°35' W 122°22'4 4.8
2015-Mar-24 09:33N 47°33' W 122°27'2 8.2
2015-Mar-24 09:17N 47°31' W 122°29'6 8.3
2015-Mar-24 08:33N 47°25' W 122°32'9 8.9
2015-Mar-24 07:33N 47°16' W 122°33'8 7.7
2015-Mar-24 06:31N 47°11' W 122°43'7 6.8
2015-Mar-24 05:30N 47°10' W 122°53'  
2015-Mar-21 13:23N 47°12' W 122°56'2 1.5
2015-Mar-21 12:16N 47°11' W 122°54'0 0.0
2015-Mar-21 11:33N 47°11' W 122°54'0 0.0
2015-Mar-21 10:27N 47°11' W 122°54'0 0.0
2015-Mar-21 09:27N 47°11' W 122°54'0 0.0
2015-Mar-21 08:21N 47°11' W 122°54'3 3.3
2015-Mar-21 07:32N 47°11' W 122°50'7 7.0
2015-Mar-21 06:32N 47°11' W 122°39'7 7.0
2015-Mar-21 05:33N 47°17' W 122°33'7 6.8
2015-Mar-21 04:33N 47°24' W 122°32'4 7.2
2015-Mar-21 04:02N 47°27' W 122°31'4 7.5
2015-Mar-21 03:33N 47°31' W 122°29'0 6.6
2015-Mar-21 03:32N 47°31' W 122°29'8 7.8
2015-Mar-21 02:33N 47°38' W 122°28'0 7.7
2015-Mar-21 02:32N 47°39' W 122°28'8 7.9
2015-Mar-21 01:33N 47°46' W 122°27'0 6.8
2015-Mar-21 01:31N 47°46' W 122°26'8 8.4
2015-Mar-21 00:33N 47°53' W 122°21'8 7.8
2015-Mar-20 23:32N 47°60' W 122°14'2 1.8
2015-Mar-20 22:22N 48°01' W 122°11'0 0.0
2015-Mar-20 21:20N 48°01' W 122°11'0 0.0
2015-Mar-20 20:33N 48°01' W 122°11'0 0.0
2015-Mar-20 19:33N 48°01' W 122°11'0 0.0
2015-Mar-20 18:33N 48°01' W 122°11'0 0.0
2015-Mar-20 17:33N 48°01' W 122°11'0 0.0
2015-Mar-20 16:32N 48°01' W 122°11'0 0.0
2015-Mar-20 15:33N 48°01' W 122°11'0 0.0
2015-Mar-20 14:09N 48°01' W 122°11'0 0.0
2015-Mar-20 13:33N 48°01' W 122°11'0 0.0
2015-Mar-20 12:33N 48°01' W 122°11'3 3.5
2015-Mar-20 11:33N 47°59' W 122°15'3 3.4
2015-Mar-20 10:33N 47°59' W 122°20'4 4.1
2015-Mar-20 09:33N 47°55' W 122°21'2 4.3
2015-Mar-20 09:08N 47°53' W 122°21'2 3.7
2015-Mar-20 08:33N 47°51' W 122°23'2 4.1
2015-Mar-20 08:03N 47°50' W 122°24'3 5.5
2015-Mar-20 07:33N 47°47' W 122°25'1 6.9
2015-Mar-20 07:23N 47°46' W 122°25'6 6.8
2015-Mar-20 06:33N 47°40' W 122°27'0 6.1
2015-Mar-20 06:33N 47°40' W 122°27'2 7.4
2015-Mar-20 06:13N 47°38' W 122°27'5 7.1
2015-Mar-20 05:33N 47°33' W 122°28'8 8.4
2015-Mar-20 04:33N 47°25' W 122°32'10 9.9
2015-Mar-20 03:33N 47°15' W 122°34'16 6.8
2015-Mar-20 01:13N 47°11' W 122°56'  

Dump ship's entire track history